Time;durP1;ratioP1;P1;durP2;ratioP2;P2;SDS_P1;SDS_P2;PMS_P1;PMS_P2;Temp;Humidity;BMP_temperature;BMP_pressure;BME280_temperature;BME280_humidity;BME280_pressure;Samples;Min_cycle;Max_cycle;Signal;HPM_P1;HPM_P2
2022/07/13 00:02:10;;;;;;;;;;;19.70;99.90;;;;;;5136942;27;19962;-84
2022/07/13 00:04:35;;;;;;;;;;;19.70;99.90;;;;;;5120196;27;20266;-85
2022/07/13 00:07:01;;;;;;;;;;;19.70;99.90;;;;;;5118506;27;19934;-84
2022/07/13 00:09:26;;;;;;;;;;;19.70;99.90;;;;;;5119629;27;19923;-84
2022/07/13 00:11:52;;;;;;;;;;;19.60;99.90;;;;;;5119906;27;20347;-84
2022/07/13 00:14:17;;;;;;;;;;;19.60;99.90;;;;;;5119868;27;19923;-84
2022/07/13 00:16:43;;;;;;;;;;;19.60;99.90;;;;;;5107824;27;19923;-85
2022/07/13 00:19:09;;;;;;;;;;;19.70;99.90;;;;;;5116472;28;19975;-85
2022/07/13 00:21:34;;;;;;;;;;;19.70;99.90;;;;;;5109114;27;19946;-84
2022/07/13 00:24:00;;;;;;;;;;;19.70;99.90;;;;;;5099118;28;20014;-85
2022/07/13 00:26:26;;;;;;;;;;;19.70;99.90;;;;;;5117799;28;19924;-84
2022/07/13 00:28:52;;;;;;;;;;;19.70;99.90;;;;;;5109712;27;19934;-84
2022/07/13 00:31:18;;;;;;;;;;;19.70;99.90;;;;;;5136091;27;19931;-84
2022/07/13 00:33:43;;;;;;;;;;;19.70;99.90;;;;;;5102285;27;19923;-85
2022/07/13 00:36:09;;;;;;;;;;;19.70;99.90;;;;;;5119743;27;19972;-84
2022/07/13 00:38:35;;;;;;;;;;;19.70;99.90;;;;;;5119141;28;19924;-84
2022/07/13 00:41:00;;;;;;;;;;;19.80;99.90;;;;;;5116101;28;20310;-85
2022/07/13 00:43:26;;;;;;;;;;;19.80;99.90;;;;;;5099370;28;19923;-85
2022/07/13 00:45:52;;;;;;;;;;;19.70;99.90;;;;;;5115807;28;19927;-85
2022/07/13 00:48:18;;;;;;;;;;;19.70;99.90;;;;;;5098655;28;19924;-84
2022/07/13 00:50:44;;;;;;;;;;;19.70;99.90;;;;;;5116135;28;19946;-85
2022/07/13 00:53:10;;;;;;;;;;;19.80;99.90;;;;;;5100882;27;19930;-85
2022/07/13 00:55:35;;;;;;;;;;;19.80;99.90;;;;;;5103260;27;19923;-84
2022/07/13 00:58:01;;;;;;;;;;;19.80;99.90;;;;;;5115541;27;19923;-84
2022/07/13 01:00:26;;;;;;;;;;;19.70;99.90;;;;;;5103076;27;19923;-84
2022/07/13 01:02:52;;;;;;;;;;;19.70;99.90;;;;;;5110417;27;20390;-84
2022/07/13 01:05:18;;;;;;;;;;;19.70;99.90;;;;;;5102906;27;19923;-84
2022/07/13 01:07:44;;;;;;;;;;;19.70;99.90;;;;;;5119777;27;19923;-85
2022/07/13 01:10:11;;;;;;;;;;;19.70;99.90;;;;;;5134975;27;19923;-84
2022/07/13 01:12:37;;;;;;;;;;;19.70;99.90;;;;;;5140299;27;19970;-84
2022/07/13 01:15:04;;;;;;;;;;;19.70;99.90;;;;;;5122602;27;19923;-85
2022/07/13 01:17:30;;;;;;;;;;;19.70;99.90;;;;;;5102656;27;19924;-84
2022/07/13 01:19:56;;;;;;;;;;;19.70;99.90;;;;;;5095790;27;19976;-85
2022/07/13 01:22:24;;;;;;;;;;;19.70;99.90;;;;;;5119307;27;19928;-85
2022/07/13 01:24:50;;;;;;;;;;;19.70;99.90;;;;;;5102229;27;19924;-85
2022/07/13 01:27:16;;;;;;;;;;;19.70;99.90;;;;;;5108610;27;20017;-85
2022/07/13 01:29:42;;;;;;;;;;;19.70;99.90;;;;;;5101543;27;19927;-86
2022/07/13 01:32:07;;;;;;;;;;;19.80;99.90;;;;;;5119349;27;19930;-85
2022/07/13 01:34:33;;;;;;;;;;;19.80;99.90;;;;;;5122014;27;19930;-85
2022/07/13 01:36:59;;;;;;;;;;;19.80;99.90;;;;;;5136009;27;19923;-86
2022/07/13 01:39:25;;;;;;;;;;;19.80;99.90;;;;;;5122001;27;19982;-85
2022/07/13 01:41:50;;;;;;;;;;;19.70;99.90;;;;;;5102225;27;19923;-87
2022/07/13 01:44:16;;;;;;;;;;;19.70;99.90;;;;;;5102613;27;19923;-85
2022/07/13 01:46:42;;;;;;;;;;;19.70;99.90;;;;;;5101878;27;20455;-86
2022/07/13 01:49:07;;;;;;;;;;;19.70;99.90;;;;;;5104927;27;19953;-85
2022/07/13 01:51:33;;;;;;;;;;;19.80;99.90;;;;;;5122709;27;20007;-85
2022/07/13 01:53:59;;;;;;;;;;;19.80;99.90;;;;;;5132703;27;19941;-85
2022/07/13 01:56:24;;;;;;;;;;;19.80;99.90;;;;;;5117112;27;19927;-85
2022/07/13 01:58:50;;;;;;;;;;;19.80;99.90;;;;;;5135288;27;20469;-85
2022/07/13 02:01:15;;;;;;;;;;;19.80;99.90;;;;;;5135006;27;20281;-85
2022/07/13 02:03:41;;;;;;;;;;;19.80;99.90;;;;;;5101024;28;19930;-86
2022/07/13 02:06:07;;;;;;;;;;;19.80;99.90;;;;;;5110082;27;20295;-85
2022/07/13 02:08:33;;;;;;;;;;;19.80;99.90;;;;;;5137001;27;19976;-82
2022/07/13 02:10:58;;;;;;;;;;;19.80;99.90;;;;;;5139092;27;19923;-82
2022/07/13 02:13:24;;;;;;;;;;;19.80;99.90;;;;;;5122060;27;19929;-81
2022/07/13 02:15:50;;;;;;;;;;;19.80;99.90;;;;;;5122055;27;19983;-82
2022/07/13 02:18:16;;;;;;;;;;;19.80;99.90;;;;;;5139006;27;19930;-81
2022/07/13 02:20:42;;;;;;;;;;;19.80;99.90;;;;;;5104765;27;19927;-81
2022/07/13 02:23:07;;;;;;;;;;;19.80;99.90;;;;;;5121532;27;19923;-82
2022/07/13 02:25:33;;;;;;;;;;;19.80;99.90;;;;;;5139061;27;20363;-82
2022/07/13 02:27:59;;;;;;;;;;;19.90;99.90;;;;;;5121221;27;19930;-82
2022/07/13 02:30:25;;;;;;;;;;;19.80;99.90;;;;;;5104515;27;19923;-81
2022/07/13 02:32:50;;;;;;;;;;;19.80;99.90;;;;;;5138707;27;19976;-81
2022/07/13 02:35:16;;;;;;;;;;;19.80;99.90;;;;;;5104589;27;19927;-82
2022/07/13 02:37:41;;;;;;;;;;;19.80;99.90;;;;;;5121735;27;19930;-83
2022/07/13 02:40:08;;;;;;;;;;;19.80;99.90;;;;;;5138613;27;19929;-83
2022/07/13 02:42:33;;;;;;;;;;;19.80;99.90;;;;;;5117705;27;19923;-83
2022/07/13 02:44:59;;;;;;;;;;;19.80;99.90;;;;;;5117782;27;19924;-84
2022/07/13 02:47:25;;;;;;;;;;;19.80;99.90;;;;;;5103134;27;19930;-82
2022/07/13 02:49:50;;;;;;;;;;;19.70;99.90;;;;;;5104189;27;19975;-83
2022/07/13 02:52:16;;;;;;;;;;;19.70;99.90;;;;;;5121011;27;19926;-84
2022/07/13 02:54:42;;;;;;;;;;;19.70;99.90;;;;;;5133740;27;20031;-84
2022/07/13 02:57:08;;;;;;;;;;;19.80;99.90;;;;;;5100359;27;19930;-83
2022/07/13 02:59:35;;;;;;;;;;;19.80;99.90;;;;;;5120208;27;20386;-84
2022/07/13 03:02:00;;;;;;;;;;;19.80;99.90;;;;;;5120881;27;19924;-83
2022/07/13 03:04:26;;;;;;;;;;;19.90;99.90;;;;;;5111937;27;19924;-83
2022/07/13 03:06:52;;;;;;;;;;;19.80;99.90;;;;;;5106106;27;19950;-84
2022/07/13 03:09:17;;;;;;;;;;;19.80;99.90;;;;;;5120456;27;19997;-84
2022/07/13 03:11:43;;;;;;;;;;;19.80;99.90;;;;;;5103944;27;19923;-84
2022/07/13 03:14:08;;;;;;;;;;;19.80;99.90;;;;;;5119149;27;19973;-84
2022/07/13 03:16:34;;;;;;;;;;;19.80;99.90;;;;;;5117373;27;20435;-84
2022/07/13 03:19:00;;;;;;;;;;;19.80;99.90;;;;;;5108258;27;19923;-83
2022/07/13 03:21:28;;;;;;;;;;;19.80;99.90;;;;;;5137513;27;19972;-84
2022/07/13 03:23:57;;;;;;;;;;;19.80;99.90;;;;;;5120489;27;19970;-84
2022/07/13 03:26:23;;;;;;;;;;;19.80;99.90;;;;;;5102428;27;20402;-84
2022/07/13 03:28:49;;;;;;;;;;;19.80;99.90;;;;;;5116966;27;19978;-84
2022/07/13 03:31:15;;;;;;;;;;;19.80;99.90;;;;;;5099936;27;19927;-84
2022/07/13 03:33:41;;;;;;;;;;;19.70;99.90;;;;;;5127152;27;19976;-84
2022/07/13 03:36:07;;;;;;;;;;;19.70;99.90;;;;;;5099921;27;19942;-84
2022/07/13 03:38:33;;;;;;;;;;;19.70;99.90;;;;;;5083328;27;19927;-83
2022/07/13 03:40:59;;;;;;;;;;;19.70;99.90;;;;;;5100261;27;20010;-85
2022/07/13 03:43:25;;;;;;;;;;;19.70;99.90;;;;;;5108005;27;19927;-85
2022/07/13 03:45:50;;;;;;;;;;;19.80;99.90;;;;;;5115763;27;20025;-85
2022/07/13 03:48:17;;;;;;;;;;;19.80;99.90;;;;;;5116330;27;19924;-85
2022/07/13 03:50:43;;;;;;;;;;;19.80;99.90;;;;;;5116884;27;19935;-85
2022/07/13 03:53:08;;;;;;;;;;;19.90;99.90;;;;;;5102006;27;19930;-84
2022/07/13 03:55:34;;;;;;;;;;;19.90;99.90;;;;;;5120166;27;20009;-84
2022/07/13 03:58:00;;;;;;;;;;;20.00;99.90;;;;;;5085651;27;19927;-84
2022/07/13 04:00:25;;;;;;;;;;;20.00;99.90;;;;;;5082528;27;19930;-84
2022/07/13 04:02:51;;;;;;;;;;;20.00;99.90;;;;;;5126157;27;19992;-85
2022/07/13 04:05:16;;;;;;;;;;;20.10;99.90;;;;;;5116878;27;19930;-84
2022/07/13 04:07:42;;;;;;;;;;;20.10;99.90;;;;;;5102991;27;20327;-84
2022/07/13 04:10:08;;;;;;;;;;;20.10;99.90;;;;;;5136988;27;19966;-85
2022/07/13 04:12:33;;;;;;;;;;;20.10;99.90;;;;;;5137126;27;20338;-84
2022/07/13 04:14:59;;;;;;;;;;;20.10;99.90;;;;;;5137269;27;19923;-83
2022/07/13 04:17:24;;;;;;;;;;;20.10;99.90;;;;;;5133207;27;19923;-83
2022/07/13 04:19:50;;;;;;;;;;;20.20;99.90;;;;;;5116345;28;19923;-84
2022/07/13 04:22:15;;;;;;;;;;;20.10;99.90;;;;;;5118571;28;19999;-84
2022/07/13 04:24:41;;;;;;;;;;;20.10;99.90;;;;;;5120534;27;19930;-83
2022/07/13 04:27:06;;;;;;;;;;;20.10;99.90;;;;;;5119990;27;19923;-82
2022/07/13 04:29:32;;;;;;;;;;;20.20;99.90;;;;;;5106546;27;19935;-84
2022/07/13 04:31:58;;;;;;;;;;;20.20;99.90;;;;;;5124005;27;20354;-83
2022/07/13 04:34:24;;;;;;;;;;;20.10;99.90;;;;;;5137080;27;19924;-84
2022/07/13 04:36:51;;;;;;;;;;;20.10;99.90;;;;;;5103542;27;19931;-84
2022/07/13 04:39:17;;;;;;;;;;;20.10;99.90;;;;;;5103656;27;19946;-84
2022/07/13 04:41:43;;;;;;;;;;;20.10;99.90;;;;;;5120445;27;20351;-84
2022/07/13 04:44:08;;;;;;;;;;;20.00;99.90;;;;;;5104362;27;19969;-84
2022/07/13 04:46:34;;;;;;;;;;;20.00;99.90;;;;;;5114567;27;19930;-84
2022/07/13 04:49:00;;;;;;;;;;;20.00;99.90;;;;;;5103209;27;19923;-83
2022/07/13 04:51:25;;;;;;;;;;;20.00;99.90;;;;;;5086221;27;19966;-83
2022/07/13 04:53:51;;;;;;;;;;;20.00;99.90;;;;;;5103102;27;19967;-83
2022/07/13 04:56:16;;;;;;;;;;;20.00;99.90;;;;;;5094684;27;19923;-85
2022/07/13 04:58:42;;;;;;;;;;;20.00;99.90;;;;;;5140679;27;19934;-84
2022/07/13 05:01:08;;;;;;;;;;;19.90;99.90;;;;;;5123689;27;19930;-85
2022/07/13 05:03:33;;;;;;;;;;;19.90;99.90;;;;;;5123344;27;20303;-84
2022/07/13 05:05:59;;;;;;;;;;;19.90;99.90;;;;;;5106087;27;19930;-85
2022/07/13 05:08:25;;;;;;;;;;;19.90;99.90;;;;;;5122693;27;19923;-85
2022/07/13 05:10:51;;;;;;;;;;;19.90;99.90;;;;;;5139268;27;19929;-84
2022/07/13 05:13:17;;;;;;;;;;;19.90;99.90;;;;;;5140119;27;20282;-85
2022/07/13 05:15:43;;;;;;;;;;;19.90;99.90;;;;;;5123156;27;19923;-85
2022/07/13 05:18:08;;;;;;;;;;;19.80;99.90;;;;;;5106263;27;20367;-84
2022/07/13 05:20:34;;;;;;;;;;;19.80;99.90;;;;;;5119338;27;19977;-84
2022/07/13 05:22:59;;;;;;;;;;;19.80;99.90;;;;;;5119706;27;19923;-84
2022/07/13 05:25:25;;;;;;;;;;;19.80;99.90;;;;;;5102489;27;19924;-84
2022/07/13 05:27:50;;;;;;;;;;;19.70;99.90;;;;;;5131539;27;19923;-84
2022/07/13 05:30:16;;;;;;;;;;;19.70;99.90;;;;;;5121981;27;20010;-88
2022/07/13 05:32:42;;;;;;;;;;;19.70;99.90;;;;;;5105885;27;19934;-84
2022/07/13 05:35:07;;;;;;;;;;;19.70;99.90;;;;;;5140050;27;19943;-84
2022/07/13 05:37:33;;;;;;;;;;;19.80;99.90;;;;;;5101949;27;19924;-83
2022/07/13 05:39:59;;;;;;;;;;;19.80;99.90;;;;;;5085344;27;20000;-84
2022/07/13 05:42:26;;;;;;;;;;;19.80;99.90;;;;;;5112903;27;20295;-85
2022/07/13 05:44:51;;;;;;;;;;;19.80;99.90;;;;;;5122645;27;19984;-83
2022/07/13 05:47:17;;;;;;;;;;;19.80;99.90;;;;;;5121075;27;19927;-84
2022/07/13 05:49:42;;;;;;;;;;;19.70;99.90;;;;;;5104322;27;20425;-85
2022/07/13 05:52:08;;;;;;;;;;;19.70;99.90;;;;;;5119098;27;20390;-84
2022/07/13 05:54:35;;;;;;;;;;;19.70;99.90;;;;;;5101383;27;19923;-84
2022/07/13 05:57:01;;;;;;;;;;;19.60;99.90;;;;;;5129665;27;19923;-83
2022/07/13 05:59:27;;;;;;;;;;;19.70;99.90;;;;;;5115072;27;19950;-82
2022/07/13 06:01:53;;;;;;;;;;;19.70;99.90;;;;;;5101298;27;19934;-83
2022/07/13 06:04:19;;;;;;;;;;;19.70;99.90;;;;;;5083698;27;19930;-82
2022/07/13 06:06:45;;;;;;;;;;;19.80;99.90;;;;;;5103811;27;19927;-82
2022/07/13 06:09:11;;;;;;;;;;;19.80;99.90;;;;;;5122007;27;20323;-82
2022/07/13 06:11:37;;;;;;;;;;;19.90;99.90;;;;;;5141323;27;19923;-85
2022/07/13 06:14:02;;;;;;;;;;;20.00;99.90;;;;;;5129546;27;19934;-84
2022/07/13 06:16:28;;;;;;;;;;;20.00;99.90;;;;;;5130561;27;19931;-83
2022/07/13 06:18:54;;;;;;;;;;;20.00;99.90;;;;;;5134608;27;19942;-83
2022/07/13 06:21:19;;;;;;;;;;;20.00;99.90;;;;;;5119157;27;19958;-84
2022/07/13 06:23:45;;;;;;;;;;;20.10;99.90;;;;;;5098458;27;19924;-83
2022/07/13 06:26:10;;;;;;;;;;;20.10;99.90;;;;;;5115822;27;19927;-85
2022/07/13 06:28:36;;;;;;;;;;;20.10;99.90;;;;;;5115521;27;19924;-84
2022/07/13 06:31:01;;;;;;;;;;;20.20;99.90;;;;;;5115802;27;19919;-83
2022/07/13 06:33:27;;;;;;;;;;;20.20;99.90;;;;;;5115438;27;19946;-84
2022/07/13 06:35:52;;;;;;;;;;;20.20;99.90;;;;;;5118962;27;19927;-85
2022/07/13 06:38:18;;;;;;;;;;;20.30;99.90;;;;;;5119201;27;19923;-84
2022/07/13 06:40:45;;;;;;;;;;;20.40;99.90;;;;;;5101793;27;20370;-84
2022/07/13 06:43:11;;;;;;;;;;;20.40;99.90;;;;;;5118886;27;19923;-85
2022/07/13 06:45:37;;;;;;;;;;;20.40;99.90;;;;;;5101785;27;20270;-83
2022/07/13 06:48:02;;;;;;;;;;;20.40;99.90;;;;;;5117176;27;19930;-88
2022/07/13 06:50:28;;;;;;;;;;;20.50;99.90;;;;;;5135275;27;19926;-87
2022/07/13 06:52:54;;;;;;;;;;;20.50;99.90;;;;;;5118734;27;20018;-84
2022/07/13 06:55:19;;;;;;;;;;;20.60;99.90;;;;;;5118696;27;19919;-86
2022/07/13 06:57:45;;;;;;;;;;;20.60;99.90;;;;;;5099139;27;19959;-85
2022/07/13 07:00:11;;;;;;;;;;;20.70;99.90;;;;;;5123699;27;19919;-86
2022/07/13 07:02:36;;;;;;;;;;;20.70;99.90;;;;;;5114633;27;19974;-87
2022/07/13 07:05:03;;;;;;;;;;;20.80;99.90;;;;;;5098092;27;19927;-87
2022/07/13 07:07:28;;;;;;;;;;;20.80;99.90;;;;;;5138639;27;20023;-84
2022/07/13 07:09:54;;;;;;;;;;;20.90;99.90;;;;;;5138303;27;19973;-86
2022/07/13 07:12:19;;;;;;;;;;;20.80;99.90;;;;;;5117622;27;20017;-86
2022/07/13 07:14:45;;;;;;;;;;;21.00;99.90;;;;;;5129203;27;20369;-85
2022/07/13 07:17:11;;;;;;;;;;;21.00;99.90;;;;;;5121361;27;20409;-86
2022/07/13 07:19:36;;;;;;;;;;;21.00;99.90;;;;;;5116193;27;19927;-85
2022/07/13 07:22:02;;;;;;;;;;;21.10;99.90;;;;;;5100368;27;20383;-88
2022/07/13 07:24:28;;;;;;;;;;;21.10;99.90;;;;;;5118004;27;19972;-90
2022/07/13 07:26:54;;;;;;;;;;;21.10;99.90;;;;;;5118568;27;19974;-85
2022/07/13 07:29:20;;;;;;;;;;;21.20;99.90;;;;;;5126182;27;20386;-85
2022/07/13 07:31:45;;;;;;;;;;;21.20;99.90;;;;;;5141069;27;19934;-85
2022/07/13 07:34:11;;;;;;;;;;;21.20;99.90;;;;;;5100590;27;19934;-86
2022/07/13 07:36:36;;;;;;;;;;;21.30;99.90;;;;;;5119198;27;19935;-88
2022/07/13 07:39:02;;;;;;;;;;;21.30;99.90;;;;;;5122054;27;19926;-90
2022/07/13 07:41:28;;;;;;;;;;;21.30;99.90;;;;;;5132360;27;20415;-90
2022/07/13 07:43:53;;;;;;;;;;;21.40;99.90;;;;;;5111967;27;20374;-89
2022/07/13 07:46:19;;;;;;;;;;;21.40;99.90;;;;;;5115207;27;20030;-90
2022/07/13 07:48:44;;;;;;;;;;;21.50;99.90;;;;;;5142416;27;19923;-90
2022/07/13 07:51:10;;;;;;;;;;;21.50;99.90;;;;;;5136465;27;20411;-92
2022/07/13 07:53:36;;;;;;;;;;;21.60;99.90;;;;;;5125424;27;19934;-84
2022/07/13 07:56:01;;;;;;;;;;;21.60;99.90;;;;;;5118212;27;19946;-86
2022/07/13 07:58:27;;;;;;;;;;;21.70;99.90;;;;;;5103888;27;19935;-86
2022/07/13 08:00:53;;;;;;;;;;;21.70;99.90;;;;;;5117463;27;19926;-88
2022/07/13 08:03:18;;;;;;;;;;;21.80;99.90;;;;;;5127325;27;19982;-86
2022/07/13 08:05:48;;;;;;;;;;;21.80;99.90;;;;;;5098917;27;19923;-85
2022/07/13 08:08:14;;;;;;;;;;;21.80;99.90;;;;;;5114612;27;19934;-86
2022/07/13 08:10:39;;;;;;;;;;;21.90;99.90;;;;;;5110070;27;20003;-85
2022/07/13 08:13:05;;;;;;;;;;;21.90;99.90;;;;;;5118752;27;19980;-85
2022/07/13 08:15:31;;;;;;;;;;;21.90;99.90;;;;;;5132338;27;19927;-87
2022/07/13 08:17:57;;;;;;;;;;;22.00;99.90;;;;;;5118529;27;19923;-87
2022/07/13 08:20:23;;;;;;;;;;;22.00;99.90;;;;;;5127662;27;19931;-86
2022/07/13 08:22:49;;;;;;;;;;;22.10;99.90;;;;;;5140933;27;20419;-86
2022/07/13 08:25:15;;;;;;;;;;;22.10;99.90;;;;;;5153480;27;19933;-87
2022/07/13 08:27:43;;;;;;;;;;;22.20;99.90;;;;;;5124087;27;19993;-86
2022/07/13 08:30:10;;;;;;;;;;;22.20;99.90;;;;;;5125653;27;19923;-86
2022/07/13 08:32:36;;;;;;;;;;;22.10;99.90;;;;;;5134082;27;20018;-86
2022/07/13 08:40:30;;;;;;;;;;;22.10;99.90;;;;;;5132019;27;20491;-85
2022/07/13 08:42:56;;;;;;;;;;;22.20;99.90;;;;;;5114668;28;19931;-86
2022/07/13 08:45:22;;;;;;;;;;;22.20;99.90;;;;;;5114081;27;19945;-88
2022/07/13 08:47:47;;;;;;;;;;;22.20;99.90;;;;;;5116530;27;19985;-89
2022/07/13 08:50:13;;;;;;;;;;;22.20;99.90;;;;;;5122714;27;20434;-87
2022/07/13 08:52:40;;;;;;;;;;;22.20;99.90;;;;;;5117038;27;19931;-88
2022/07/13 08:55:06;;;;;;;;;;;22.20;99.90;;;;;;5117075;27;19927;-88
2022/07/13 08:57:34;;;;;;;;;;;22.20;99.90;;;;;;5134418;27;20046;-87
2022/07/13 09:00:00;;;;;;;;;;;22.20;99.90;;;;;;5117099;27;20022;-87
2022/07/13 09:02:26;;;;;;;;;;;22.30;99.90;;;;;;5116922;27;20345;-87
2022/07/13 09:04:52;;;;;;;;;;;22.20;99.90;;;;;;5116982;27;20022;-85
2022/07/13 09:07:17;;;;;;;;;;;22.30;99.90;;;;;;5098603;27;20369;-87
2022/07/13 09:09:43;;;;;;;;;;;22.30;99.90;;;;;;5116010;27;19940;-89
2022/07/13 09:12:08;;;;;;;;;;;22.30;99.90;;;;;;5140273;27;20014;-85
2022/07/13 09:14:34;;;;;;;;;;;22.40;99.90;;;;;;5144187;27;20251;-84
2022/07/13 09:17:00;;;;;;;;;;;22.50;99.90;;;;;;5137565;27;20335;-86
2022/07/13 09:19:33;;;;;;;;;;;22.50;99.90;;;;;;5112908;27;20232;-86
2022/07/13 09:22:06;;;;;;;;;;;22.40;99.90;;;;;;5119251;27;19923;-88
2022/07/13 09:24:42;;;;;;;;;;;22.40;99.90;;;;;;5110962;27;20425;-87
2022/07/13 09:27:07;;;;;;;;;;;22.40;99.90;;;;;;5123358;27;20330;-88
2022/07/13 09:29:35;;;;;;;;;;;22.50;99.90;;;;;;5140319;27;19924;-87
2022/07/13 09:32:04;;;;;;;;;;;22.60;99.90;;;;;;5123057;27;20260;-88
2022/07/13 09:34:46;;;;;;;;;;;22.60;99.90;;;;;;5121261;27;20405;-87
2022/07/13 09:37:13;;;;;;;;;;;22.60;99.90;;;;;;5140468;27;19923;-88
2022/07/13 09:39:57;;;;;;;;;;;22.50;99.90;;;;;;5123391;27;19923;-87
2022/07/13 09:42:26;;;;;;;;;;;22.60;99.90;;;;;;5123147;27;19966;-87
2022/07/13 09:47:57;;;;;;;;;;;22.70;99.90;;;;;;5029075;28;20482;-88
2022/07/13 09:50:24;;;;;;;;;;;22.70;99.90;;;;;;5094129;27;19976;-86
2022/07/13 09:52:51;;;;;;;;;;;22.80;99.90;;;;;;5119507;27;19924;-87
2022/07/13 09:55:20;;;;;;;;;;;22.80;99.90;;;;;;5120605;27;19931;-87
2022/07/13 09:57:47;;;;;;;;;;;22.90;99.90;;;;;;5139886;27;20011;-88
2022/07/13 10:00:17;;;;;;;;;;;22.90;99.90;;;;;;5140235;27;19976;-87
2022/07/13 10:02:43;;;;;;;;;;;23.00;99.90;;;;;;5139633;27;19934;-88
2022/07/13 10:05:10;;;;;;;;;;;23.00;99.90;;;;;;5139506;27;19986;-87
2022/07/13 10:07:37;;;;;;;;;;;23.10;99.90;;;;;;5120431;27;19927;-87
2022/07/13 10:10:07;;;;;;;;;;;23.30;99.90;;;;;;5105185;27;20478;-87
2022/07/13 10:12:36;;;;;;;;;;;23.40;99.90;;;;;;5122222;27;20425;-87
2022/07/13 10:15:06;;;;;;;;;;;23.50;99.90;;;;;;5139830;27;20004;-85
2022/07/13 10:17:32;;;;;;;;;;;23.40;99.90;;;;;;5108872;27;19924;-84
2022/07/13 10:19:59;;;;;;;;;;;23.30;99.90;;;;;;5118473;27;20256;-85
2022/07/13 10:22:25;;;;;;;;;;;23.20;99.90;;;;;;5101633;27;20369;-85
2022/07/13 10:24:55;;;;;;;;;;;23.30;99.90;;;;;;5117452;28;20287;-86
2022/07/13 10:27:31;;;;;;;;;;;23.30;99.90;;;;;;5103772;27;19923;-87
2022/07/13 10:30:02;;;;;;;;;;;23.40;99.90;;;;;;5114313;27;19971;-87
2022/07/13 10:32:28;;;;;;;;;;;23.50;99.90;;;;;;5139166;27;19924;-89
2022/07/13 10:34:57;;;;;;;;;;;23.50;99.90;;;;;;5121890;27;19949;-88
2022/07/13 10:37:24;;;;;;;;;;;23.50;99.90;;;;;;5135322;27;19982;-84
2022/07/13 10:40:12;;;;;;;;;;;23.40;99.90;;;;;;5100101;27;19978;-84
2022/07/13 10:42:53;;;;;;;;;;;23.50;99.90;;;;;;5118077;27;19923;-87
2022/07/13 10:45:32;;;;;;;;;;;23.60;99.90;;;;;;5101241;27;19924;-86
2022/07/13 10:47:58;;;;;;;;;;;23.50;99.90;;;;;;5100201;27;19923;-85
2022/07/13 10:50:26;;;;;;;;;;;23.50;99.90;;;;;;5100876;27;19970;-84
2022/07/13 10:52:52;;;;;;;;;;;23.50;99.90;;;;;;5117453;27;19930;-84
2022/07/13 10:55:20;;;;;;;;;;;23.50;99.90;;;;;;5100467;27;19923;-87
2022/07/13 10:57:46;;;;;;;;;;;23.30;99.90;;;;;;5100740;27;19923;-84
2022/07/13 11:02:50;;;;;;;;;;;23.40;99.90;;;;;;5117568;27;19923;-86
2022/07/13 11:05:17;;;;;;;;;;;23.40;99.90;;;;;;5100799;27;19988;-84
2022/07/13 11:07:50;;;;;;;;;;;23.70;99.90;;;;;;5117011;27;19927;-87
2022/07/13 11:10:26;;;;;;;;;;;23.90;99.90;;;;;;5118481;27;19970;-88
2022/07/13 11:13:00;;;;;;;;;;;24.20;99.90;;;;;;5117733;27;20410;-87
2022/07/13 11:15:52;;;;;;;;;;;23.90;99.90;;;;;;5100676;27;19923;-86
2022/07/13 11:18:20;;;;;;;;;;;23.60;99.90;;;;;;5113196;27;19923;-89
2022/07/13 11:20:59;;;;;;;;;;;23.80;99.90;;;;;;5104092;27;19923;-88
2022/07/13 11:26:13;;;;;;;;;;;24.00;99.90;;;;;;5114482;27;19934;-85
2022/07/13 11:28:47;;;;;;;;;;;23.90;99.90;;;;;;5097604;27;19993;-85
2022/07/13 11:31:14;;;;;;;;;;;23.80;99.90;;;;;;5114797;27;19927;-88
2022/07/13 11:33:47;;;;;;;;;;;23.40;99.90;;;;;;5131011;27;19927;-87
2022/07/13 11:36:13;;;;;;;;;;;23.40;99.90;;;;;;5114803;27;19928;-86
2022/07/13 11:38:39;;;;;;;;;;;23.50;99.90;;;;;;5113979;27;20267;-84
2022/07/13 11:41:05;;;;;;;;;;;23.60;99.90;;;;;;5080227;27;19928;-85
2022/07/13 11:43:31;;;;;;;;;;;23.60;99.90;;;;;;5080243;27;19973;-83
2022/07/13 11:45:56;;;;;;;;;;;23.30;99.90;;;;;;5098514;27;20309;-86
2022/07/13 11:48:24;;;;;;;;;;;23.40;99.90;;;;;;5138374;27;19927;-88
2022/07/13 11:50:52;;;;;;;;;;;23.30;99.90;;;;;;5121799;27;20280;-88
2022/07/13 11:53:36;;;;;;;;;;;23.40;99.90;;;;;;5138635;27;19926;-88
2022/07/13 11:56:06;;;;;;;;;;;23.30;99.90;;;;;;5138448;27;19922;-89
2022/07/13 11:58:33;;;;;;;;;;;23.40;99.90;;;;;;5132762;27;20224;-89
2022/07/13 12:01:00;;;;;;;;;;;23.20;99.90;;;;;;5114545;27;19977;-88
2022/07/13 12:03:30;;;;;;;;;;;23.20;99.90;;;;;;5114663;27;19926;-89
2022/07/13 12:05:59;;;;;;;;;;;23.50;99.90;;;;;;5114647;27;19931;-88
2022/07/13 12:08:26;;;;;;;;;;;24.00;99.90;;;;;;5108914;27;19927;-89
2022/07/13 12:10:52;;;;;;;;;;;24.50;99.90;;;;;;5115926;27;20022;-90
2022/07/13 12:13:18;;;;;;;;;;;25.00;99.90;;;;;;5155555;27;19926;-90
2022/07/13 12:15:44;;;;;;;;;;;25.40;99.90;;;;;;5138669;27;19927;-85
2022/07/13 12:18:12;;;;;;;;;;;25.10;99.90;;;;;;5153449;27;19938;-87
2022/07/13 12:20:38;;;;;;;;;;;24.70;99.90;;;;;;5120354;27;19926;-90
2022/07/13 12:23:04;;;;;;;;;;;24.90;99.90;;;;;;5154887;27;19923;-89
2022/07/13 12:25:32;;;;;;;;;;;24.90;99.90;;;;;;5155963;27;20374;-90
2022/07/13 12:28:01;;;;;;;;;;;25.10;99.90;;;;;;5136291;27;19948;-90
2022/07/13 12:30:27;;;;;;;;;;;25.10;99.90;;;;;;5138390;27;20331;-90
2022/07/13 12:33:07;;;;;;;;;;;25.10;99.90;;;;;;5120356;27;19931;-90
2022/07/13 12:35:35;;;;;;;;;;;25.00;99.90;;;;;;5134152;27;19931;-89
2022/07/13 12:38:03;;;;;;;;;;;25.30;99.90;;;;;;5132489;27;19926;-90
2022/07/13 12:40:39;;;;;;;;;;;25.30;99.90;;;;;;5138125;27;20363;-86
2022/07/13 12:43:13;;;;;;;;;;;25.40;99.90;;;;;;5152023;27;19982;-91
2022/07/13 12:45:39;;;;;;;;;;;25.30;99.90;;;;;;5137589;27;20284;-86
2022/07/13 12:48:12;;;;;;;;;;;25.20;99.90;;;;;;5135093;27;19986;-87
2022/07/13 12:50:38;;;;;;;;;;;25.20;99.90;;;;;;5159115;27;19933;-89
2022/07/13 12:53:03;;;;;;;;;;;25.50;99.90;;;;;;5141918;27;20320;-88
2022/07/13 12:55:29;;;;;;;;;;;25.80;99.90;;;;;;5124222;27;19934;-87
2022/07/13 12:57:55;;;;;;;;;;;26.00;99.90;;;;;;5144667;27;20422;-83
2022/07/13 13:00:26;;;;;;;;;;;25.90;99.90;;;;;;5119564;27;19981;-83
2022/07/13 13:02:52;;;;;;;;;;;25.90;99.90;;;;;;5102903;27;19970;-84
2022/07/13 13:05:18;;;;;;;;;;;25.90;99.90;;;;;;5102121;27;19946;-85
2022/07/13 13:07:43;;;;;;;;;;;26.30;99.90;;;;;;5117668;27;20385;-84
2022/07/13 13:10:09;;;;;;;;;;;26.40;99.90;;;;;;5102204;27;20010;-86
2022/07/13 13:12:35;;;;;;;;;;;26.60;99.90;;;;;;5102771;27;19930;-86
2022/07/13 13:15:01;;;;;;;;;;;26.40;99.90;;;;;;5120171;27;20201;-86
2022/07/13 13:17:27;;;;;;;;;;;26.40;99.90;;;;;;5102437;27;19923;-85
2022/07/13 13:19:52;;;;;;;;;;;26.30;99.20;;;;;;5119869;27;20354;-87
2022/07/13 13:22:18;;;;;;;;;;;26.00;99.90;;;;;;5102612;27;19923;-87
2022/07/13 13:24:45;;;;;;;;;;;26.40;99.90;;;;;;5119426;27;20014;-88
2022/07/13 13:27:11;;;;;;;;;;;26.10;99.80;;;;;;5102606;27;19930;-86
2022/07/13 13:32:21;;;;;;;;;;;25.90;99.90;;;;;;5104793;27;19923;-84
2022/07/13 13:34:46;;;;;;;;;;;25.90;99.90;;;;;;5102128;27;19930;-88
2022/07/13 13:37:12;;;;;;;;;;;25.80;99.90;;;;;;5134871;27;19929;-85
2022/07/13 13:39:38;;;;;;;;;;;25.90;99.90;;;;;;5102253;27;19980;-85
2022/07/13 13:42:03;;;;;;;;;;;25.70;99.90;;;;;;5102317;27;19969;-85
2022/07/13 13:44:29;;;;;;;;;;;25.30;99.90;;;;;;5085161;27;20312;-83
2022/07/13 13:46:55;;;;;;;;;;;25.10;99.90;;;;;;5111234;27;20370;-84
2022/07/13 13:49:21;;;;;;;;;;;25.10;99.90;;;;;;5101722;27;20351;-85
2022/07/13 13:51:46;;;;;;;;;;;25.50;99.90;;;;;;5119167;27;19927;-84
2022/07/13 13:54:13;;;;;;;;;;;25.80;99.90;;;;;;5085035;27;20373;-85
2022/07/13 13:56:39;;;;;;;;;;;26.20;99.90;;;;;;5104491;27;19974;-85
2022/07/13 13:59:05;;;;;;;;;;;26.70;99.90;;;;;;5101511;27;19924;-85
2022/07/13 14:01:30;;;;;;;;;;;26.70;98.40;;;;;;5117494;27;19931;-83
2022/07/13 14:03:56;;;;;;;;;;;26.40;98.30;;;;;;5101465;27;19946;-84
2022/07/13 14:06:22;;;;;;;;;;;26.80;99.70;;;;;;5101709;27;19923;-84
2022/07/13 14:08:47;;;;;;;;;;;27.10;99.90;;;;;;5118790;27;19923;-84
2022/07/13 14:11:13;;;;;;;;;;;27.80;99.90;;;;;;5115997;27;20312;-84
2022/07/13 14:13:40;;;;;;;;;;;28.10;99.70;;;;;;5117747;27;19928;-85
2022/07/13 14:16:06;;;;;;;;;;;28.10;99.60;;;;;;5118539;27;19923;-86
2022/07/13 14:18:32;;;;;;;;;;;27.80;96.90;;;;;;5100823;27;19934;-85
2022/07/13 14:20:57;;;;;;;;;;;27.80;98.50;;;;;;5101455;27;19924;-85
2022/07/13 14:23:23;;;;;;;;;;;27.50;97.00;;;;;;5084054;27;19928;-86
2022/07/13 14:25:48;;;;;;;;;;;27.70;98.50;;;;;;5118154;27;19968;-85
2022/07/13 14:28:15;;;;;;;;;;;28.00;98.10;;;;;;5118186;27;19927;-85
2022/07/13 14:30:41;;;;;;;;;;;28.20;98.40;;;;;;5118043;27;19923;-86